Terminal Aerodrome Forecast
Issued by NWS San Angelo, TX

Home | Current Version | Previous Version | Text Only | Print | Product List | Glossary On
Versions: 1 2 3 4 5 6 7 8 9 10 11 12 13 14 15 16 17 18 19 20
244
FTUS44 KSJT 191154 CCB
TAFSJT
TAF COR
KSJT 191154Z 1912/2012 22005KT P6SM SCT250
     FM191600 23013G20KT P6SM SCT250
     FM191700 24022G30KT P6SM SKC
     FM200000 24013KT P6SM SKC
     FM200400 24014G20KT P6SM SKC=

USA.gov is the U.S. government's official web portal to all federal, state and local government web resources and services.